sensor_id;sensor_type;location;lat;lon;timestamp;P1;durP1;ratioP1;P2;durP2;ratioP2
73593;SDS011;64760;53.404;23.498;2023-07-28T00:00:33;8.45;;;4.18;;
73593;SDS011;64760;53.404;23.498;2023-07-28T00:03:19;6.68;;;4.60;;
73593;SDS011;64760;53.404;23.498;2023-07-28T00:05:45;7.13;;;3.70;;
73593;SDS011;64760;53.404;23.498;2023-07-28T00:08:11;6.72;;;3.92;;
73593;SDS011;64760;53.404;23.498;2023-07-28T00:10:40;5.90;;;3.40;;
73593;SDS011;64760;53.404;23.498;2023-07-28T00:13:08;7.18;;;4.18;;
73593;SDS011;64760;53.404;23.498;2023-07-28T00:15:34;5.72;;;3.90;;
73593;SDS011;64760;53.404;23.498;2023-07-28T00:18:00;6.65;;;4.20;;
73593;SDS011;64760;53.404;23.498;2023-07-28T00:20:27;7.82;;;4.28;;
73593;SDS011;64760;53.404;23.498;2023-07-28T00:22:54;7.32;;;4.22;;
73593;SDS011;64760;53.404;23.498;2023-07-28T00:25:19;6.40;;;3.90;;
73593;SDS011;64760;53.404;23.498;2023-07-28T00:27:46;7.75;;;4.53;;
73593;SDS011;64760;53.404;23.498;2023-07-28T00:30:12;7.97;;;4.80;;
73593;SDS011;64760;53.404;23.498;2023-07-28T00:32:38;8.38;;;4.63;;
73593;SDS011;64760;53.404;23.498;2023-07-28T00:35:04;9.48;;;5.30;;
73593;SDS011;64760;53.404;23.498;2023-07-28T00:37:32;8.60;;;5.30;;
73593;SDS011;64760;53.404;23.498;2023-07-28T00:39:59;7.75;;;4.55;;
73593;SDS011;64760;53.404;23.498;2023-07-28T00:42:27;7.15;;;4.85;;
73593;SDS011;64760;53.404;23.498;2023-07-28T00:44:53;8.10;;;5.60;;
73593;SDS011;64760;53.404;23.498;2023-07-28T00:47:19;7.53;;;4.32;;
73593;SDS011;64760;53.404;23.498;2023-07-28T00:49:45;7.13;;;5.10;;
73593;SDS011;64760;53.404;23.498;2023-07-28T00:52:12;7.70;;;5.63;;
73593;SDS011;64760;53.404;23.498;2023-07-28T00:54:37;10.10;;;6.22;;
73593;SDS011;64760;53.404;23.498;2023-07-28T00:57:04;8.75;;;5.63;;
73593;SDS011;64760;53.404;23.498;2023-07-28T00:59:31;12.25;;;5.15;;
73593;SDS011;64760;53.404;23.498;2023-07-28T01:01:57;7.22;;;4.68;;
73593;SDS011;64760;53.404;23.498;2023-07-28T01:04:24;7.75;;;4.13;;
73593;SDS011;64760;53.404;23.498;2023-07-28T01:07:02;7.00;;;4.32;;
73593;SDS011;64760;53.404;23.498;2023-07-28T01:09:34;8.25;;;4.20;;
73593;SDS011;64760;53.404;23.498;2023-07-28T01:12:05;7.18;;;4.35;;
73593;SDS011;64760;53.404;23.498;2023-07-28T01:14:32;5.82;;;3.78;;
73593;SDS011;64760;53.404;23.498;2023-07-28T01:16:58;5.43;;;3.72;;
73593;SDS011;64760;53.404;23.498;2023-07-28T01:19:24;7.57;;;4.50;;
73593;SDS011;64760;53.404;23.498;2023-07-28T01:21:57;6.13;;;3.75;;
73593;SDS011;64760;53.404;23.498;2023-07-28T01:24:38;7.15;;;4.28;;
73593;SDS011;64760;53.404;23.498;2023-07-28T01:27:08;7.90;;;4.57;;
73593;SDS011;64760;53.404;23.498;2023-07-28T01:29:34;8.98;;;4.55;;
73593;SDS011;64760;53.404;23.498;2023-07-28T01:32:01;7.95;;;4.20;;
73593;SDS011;64760;53.404;23.498;2023-07-28T01:34:27;6.05;;;3.90;;
73593;SDS011;64760;53.404;23.498;2023-07-28T01:36:53;8.52;;;4.18;;
73593;SDS011;64760;53.404;23.498;2023-07-28T01:39:19;6.78;;;4.45;;
73593;SDS011;64760;53.404;23.498;2023-07-28T01:41:45;7.45;;;5.10;;
73593;SDS011;64760;53.404;23.498;2023-07-28T01:44:11;9.27;;;4.68;;
73593;SDS011;64760;53.404;23.498;2023-07-28T01:46:38;6.65;;;4.15;;
73593;SDS011;64760;53.404;23.498;2023-07-28T01:49:05;8.50;;;4.68;;
73593;SDS011;64760;53.404;23.498;2023-07-28T01:51:31;6.32;;;4.50;;
73593;SDS011;64760;53.404;23.498;2023-07-28T01:53:57;6.35;;;4.20;;
73593;SDS011;64760;53.404;23.498;2023-07-28T01:56:23;6.95;;;4.35;;
73593;SDS011;64760;53.404;23.498;2023-07-28T01:58:49;6.28;;;4.13;;
73593;SDS011;64760;53.404;23.498;2023-07-28T02:01:15;8.48;;;5.20;;
73593;SDS011;64760;53.404;23.498;2023-07-28T02:03:41;7.63;;;4.93;;
73593;SDS011;64760;53.404;23.498;2023-07-28T02:06:08;11.82;;;4.88;;
73593;SDS011;64760;53.404;23.498;2023-07-28T02:08:34;6.25;;;4.00;;
73593;SDS011;64760;53.404;23.498;2023-07-28T02:11:00;6.93;;;3.83;;
73593;SDS011;64760;53.404;23.498;2023-07-28T02:13:26;6.10;;;3.85;;
73593;SDS011;64760;53.404;23.498;2023-07-28T02:15:52;6.75;;;4.05;;
73593;SDS011;64760;53.404;23.498;2023-07-28T02:18:18;6.18;;;4.03;;
73593;SDS011;64760;53.404;23.498;2023-07-28T02:20:47;7.97;;;4.35;;
73593;SDS011;64760;53.404;23.498;2023-07-28T02:23:13;7.00;;;4.05;;
73593;SDS011;64760;53.404;23.498;2023-07-28T02:25:40;7.07;;;4.32;;
73593;SDS011;64760;53.404;23.498;2023-07-28T02:28:08;7.38;;;4.15;;
73593;SDS011;64760;53.404;23.498;2023-07-28T02:30:34;8.23;;;5.13;;
73593;SDS011;64760;53.404;23.498;2023-07-28T02:33:00;9.43;;;5.47;;
73593;SDS011;64760;53.404;23.498;2023-07-28T02:35:26;8.30;;;5.03;;
73593;SDS011;64760;53.404;23.498;2023-07-28T02:37:52;7.85;;;4.82;;
73593;SDS011;64760;53.404;23.498;2023-07-28T02:40:18;8.40;;;5.35;;
73593;SDS011;64760;53.404;23.498;2023-07-28T02:42:44;6.30;;;4.40;;
73593;SDS011;64760;53.404;23.498;2023-07-28T02:45:11;7.95;;;5.28;;
73593;SDS011;64760;53.404;23.498;2023-07-28T02:47:37;7.65;;;5.75;;
73593;SDS011;64760;53.404;23.498;2023-07-28T02:50:05;9.35;;;6.68;;
73593;SDS011;64760;53.404;23.498;2023-07-28T02:52:31;11.55;;;6.45;;
73593;SDS011;64760;53.404;23.498;2023-07-28T02:54:57;10.48;;;6.00;;
73593;SDS011;64760;53.404;23.498;2023-07-28T02:57:23;11.32;;;6.32;;
73593;SDS011;64760;53.404;23.498;2023-07-28T02:59:49;10.40;;;5.88;;
73593;SDS011;64760;53.404;23.498;2023-07-28T03:02:15;10.43;;;5.82;;
73593;SDS011;64760;53.404;23.498;2023-07-28T03:04:44;8.60;;;4.70;;
73593;SDS011;64760;53.404;23.498;2023-07-28T03:07:16;10.25;;;4.85;;
73593;SDS011;64760;53.404;23.498;2023-07-28T03:09:45;9.60;;;5.03;;
73593;SDS011;64760;53.404;23.498;2023-07-28T03:12:12;6.22;;;3.75;;
73593;SDS011;64760;53.404;23.498;2023-07-28T03:14:39;5.95;;;4.10;;
73593;SDS011;64760;53.404;23.498;2023-07-28T03:17:05;6.75;;;4.30;;
73593;SDS011;64760;53.404;23.498;2023-07-28T03:19:31;5.88;;;3.55;;
73593;SDS011;64760;53.404;23.498;2023-07-28T03:22:00;6.80;;;3.35;;
73593;SDS011;64760;53.404;23.498;2023-07-28T03:24:26;5.10;;;2.60;;
73593;SDS011;64760;53.404;23.498;2023-07-28T03:26:52;4.20;;;2.80;;
73593;SDS011;64760;53.404;23.498;2023-07-28T03:29:18;6.85;;;3.25;;
73593;SDS011;64760;53.404;23.498;2023-07-28T03:31:45;7.18;;;3.80;;
73593;SDS011;64760;53.404;23.498;2023-07-28T03:34:12;6.22;;;4.07;;
73593;SDS011;64760;53.404;23.498;2023-07-28T03:36:39;7.35;;;4.90;;
73593;SDS011;64760;53.404;23.498;2023-07-28T03:39:05;8.68;;;5.10;;
73593;SDS011;64760;53.404;23.498;2023-07-28T03:41:31;7.90;;;4.45;;
73593;SDS011;64760;53.404;23.498;2023-07-28T03:43:57;7.50;;;4.57;;
73593;SDS011;64760;53.404;23.498;2023-07-28T03:46:23;7.65;;;4.68;;
73593;SDS011;64760;53.404;23.498;2023-07-28T03:48:49;6.85;;;4.85;;
73593;SDS011;64760;53.404;23.498;2023-07-28T03:51:15;7.05;;;4.63;;
73593;SDS011;64760;53.404;23.498;2023-07-28T03:53:42;7.75;;;5.25;;
73593;SDS011;64760;53.404;23.498;2023-07-28T03:56:08;8.93;;;4.63;;
73593;SDS011;64760;53.404;23.498;2023-07-28T03:58:34;6.95;;;5.45;;
73593;SDS011;64760;53.404;23.498;2023-07-28T04:01:00;6.80;;;4.65;;
73593;SDS011;64760;53.404;23.498;2023-07-28T04:03:26;6.05;;;4.63;;
73593;SDS011;64760;53.404;23.498;2023-07-28T04:05:52;6.38;;;4.65;;
73593;SDS011;64760;53.404;23.498;2023-07-28T04:08:19;6.22;;;4.38;;
73593;SDS011;64760;53.404;23.498;2023-07-28T04:10:44;8.80;;;4.80;;
73593;SDS011;64760;53.404;23.498;2023-07-28T04:13:11;8.85;;;4.40;;
73593;SDS011;64760;53.404;23.498;2023-07-28T04:15:37;8.07;;;4.68;;
73593;SDS011;64760;53.404;23.498;2023-07-28T04:18:03;7.63;;;4.40;;
73593;SDS011;64760;53.404;23.498;2023-07-28T04:20:29;7.15;;;4.82;;
73593;SDS011;64760;53.404;23.498;2023-07-28T04:22:55;7.30;;;4.20;;
73593;SDS011;64760;53.404;23.498;2023-07-28T04:25:21;6.63;;;4.25;;
73593;SDS011;64760;53.404;23.498;2023-07-28T04:27:48;8.57;;;3.72;;
73593;SDS011;64760;53.404;23.498;2023-07-28T04:30:14;7.13;;;4.78;;
73593;SDS011;64760;53.404;23.498;2023-07-28T04:32:40;6.50;;;4.13;;
73593;SDS011;64760;53.404;23.498;2023-07-28T04:35:14;7.60;;;3.90;;
73593;SDS011;64760;53.404;23.498;2023-07-28T04:37:46;6.55;;;4.30;;
73593;SDS011;64760;53.404;23.498;2023-07-28T04:40:21;7.28;;;4.45;;
73593;SDS011;64760;53.404;23.498;2023-07-28T04:42:48;6.53;;;4.70;;
73593;SDS011;64760;53.404;23.498;2023-07-28T04:45:18;8.00;;;4.30;;
73593;SDS011;64760;53.404;23.498;2023-07-28T04:47:45;7.78;;;4.07;;
73593;SDS011;64760;53.404;23.498;2023-07-28T04:50:11;6.63;;;3.70;;
73593;SDS011;64760;53.404;23.498;2023-07-28T04:52:56;5.47;;;4.13;;
73593;SDS011;64760;53.404;23.498;2023-07-28T04:55:25;8.52;;;4.25;;
73593;SDS011;64760;53.404;23.498;2023-07-28T04:57:53;5.55;;;4.22;;
73593;SDS011;64760;53.404;23.498;2023-07-28T05:00:20;6.43;;;4.10;;
73593;SDS011;64760;53.404;23.498;2023-07-28T05:02:46;5.97;;;4.18;;
73593;SDS011;64760;53.404;23.498;2023-07-28T05:05:12;6.75;;;4.30;;
73593;SDS011;64760;53.404;23.498;2023-07-28T05:07:38;6.47;;;4.07;;
73593;SDS011;64760;53.404;23.498;2023-07-28T05:10:04;5.63;;;3.90;;
73593;SDS011;64760;53.404;23.498;2023-07-28T05:12:31;7.15;;;3.97;;
73593;SDS011;64760;53.404;23.498;2023-07-28T05:14:57;11.98;;;6.65;;
73593;SDS011;64760;53.404;23.498;2023-07-28T05:17:23;7.45;;;4.88;;
73593;SDS011;64760;53.404;23.498;2023-07-28T05:20:15;6.82;;;3.88;;
73593;SDS011;64760;53.404;23.498;2023-07-28T05:23:02;6.85;;;4.15;;
73593;SDS011;64760;53.404;23.498;2023-07-28T05:25:30;6.13;;;4.13;;
73593;SDS011;64760;53.404;23.498;2023-07-28T05:27:56;6.97;;;4.07;;
73593;SDS011;64760;53.404;23.498;2023-07-28T05:30:22;5.78;;;4.22;;
73593;SDS011;64760;53.404;23.498;2023-07-28T05:32:49;5.28;;;3.58;;
73593;SDS011;64760;53.404;23.498;2023-07-28T05:35:28;6.20;;;3.85;;
73593;SDS011;64760;53.404;23.498;2023-07-28T05:37:55;4.57;;;3.20;;
73593;SDS011;64760;53.404;23.498;2023-07-28T05:40:21;7.35;;;3.75;;
73593;SDS011;64760;53.404;23.498;2023-07-28T05:42:47;6.05;;;3.83;;
73593;SDS011;64760;53.404;23.498;2023-07-28T05:45:13;6.80;;;3.65;;
73593;SDS011;64760;53.404;23.498;2023-07-28T05:47:40;5.57;;;3.80;;
73593;SDS011;64760;53.404;23.498;2023-07-28T05:50:06;5.05;;;3.20;;
73593;SDS011;64760;53.404;23.498;2023-07-28T05:52:32;6.00;;;3.20;;
73593;SDS011;64760;53.404;23.498;2023-07-28T05:54:58;4.68;;;2.97;;
73593;SDS011;64760;53.404;23.498;2023-07-28T05:57:27;8.35;;;4.22;;
73593;SDS011;64760;53.404;23.498;2023-07-28T05:59:53;6.13;;;3.80;;
73593;SDS011;64760;53.404;23.498;2023-07-28T06:02:19;5.90;;;3.40;;
73593;SDS011;64760;53.404;23.498;2023-07-28T06:04:53;4.43;;;2.80;;
73593;SDS011;64760;53.404;23.498;2023-07-28T06:07:19;4.68;;;3.05;;
73593;SDS011;64760;53.404;23.498;2023-07-28T06:09:45;5.82;;;2.90;;
73593;SDS011;64760;53.404;23.498;2023-07-28T06:12:11;4.22;;;2.65;;
73593;SDS011;64760;53.404;23.498;2023-07-28T06:17:07;4.57;;;2.55;;
73593;SDS011;64760;53.404;23.498;2023-07-28T06:19:34;4.60;;;2.72;;
73593;SDS011;64760;53.404;23.498;2023-07-28T06:22:00;4.18;;;2.40;;
73593;SDS011;64760;53.404;23.498;2023-07-28T06:24:29;4.03;;;2.20;;
73593;SDS011;64760;53.404;23.498;2023-07-28T06:26:58;6.13;;;2.20;;
73593;SDS011;64760;53.404;23.498;2023-07-28T06:29:24;3.88;;;1.92;;
73593;SDS011;64760;53.404;23.498;2023-07-28T06:31:50;2.60;;;1.60;;
73593;SDS011;64760;53.404;23.498;2023-07-28T06:34:16;3.42;;;1.92;;
73593;SDS011;64760;53.404;23.498;2023-07-28T06:36:43;4.03;;;1.60;;
73593;SDS011;64760;53.404;23.498;2023-07-28T06:39:09;5.90;;;2.35;;
73593;SDS011;64760;53.404;23.498;2023-07-28T06:41:35;4.90;;;1.90;;
73593;SDS011;64760;53.404;23.498;2023-07-28T06:44:07;3.58;;;1.88;;
73593;SDS011;64760;53.404;23.498;2023-07-28T06:46:34;3.83;;;2.03;;
73593;SDS011;64760;53.404;23.498;2023-07-28T06:49:01;3.22;;;2.10;;
73593;SDS011;64760;53.404;23.498;2023-07-28T06:51:27;3.03;;;1.92;;
73593;SDS011;64760;53.404;23.498;2023-07-28T06:53:53;5.13;;;1.70;;
73593;SDS011;64760;53.404;23.498;2023-07-28T06:56:20;2.85;;;1.77;;
73593;SDS011;64760;53.404;23.498;2023-07-28T06:58:46;3.88;;;1.98;;
73593;SDS011;64760;53.404;23.498;2023-07-28T07:01:13;3.28;;;2.00;;
73593;SDS011;64760;53.404;23.498;2023-07-28T07:03:39;5.95;;;1.90;;
73593;SDS011;64760;53.404;23.498;2023-07-28T07:06:05;3.13;;;1.90;;
73593;SDS011;64760;53.404;23.498;2023-07-28T07:08:32;3.97;;;1.90;;
73593;SDS011;64760;53.404;23.498;2023-07-28T07:10:58;3.60;;;1.50;;
73593;SDS011;64760;53.404;23.498;2023-07-28T07:13:25;3.05;;;1.80;;
73593;SDS011;64760;53.404;23.498;2023-07-28T07:15:51;3.40;;;1.95;;
73593;SDS011;64760;53.404;23.498;2023-07-28T07:18:17;2.97;;;1.80;;
73593;SDS011;64760;53.404;23.498;2023-07-28T07:20:44;3.63;;;2.20;;
73593;SDS011;64760;53.404;23.498;2023-07-28T07:23:10;4.32;;;1.80;;
73593;SDS011;64760;53.404;23.498;2023-07-28T07:25:37;3.05;;;1.83;;
73593;SDS011;64760;53.404;23.498;2023-07-28T07:28:03;4.60;;;2.05;;
73593;SDS011;64760;53.404;23.498;2023-07-28T07:30:32;4.13;;;2.28;;
73593;SDS011;64760;53.404;23.498;2023-07-28T07:33:00;3.88;;;2.22;;
73593;SDS011;64760;53.404;23.498;2023-07-28T07:35:26;3.00;;;1.75;;
73593;SDS011;64760;53.404;23.498;2023-07-28T07:37:52;5.07;;;2.00;;
73593;SDS011;64760;53.404;23.498;2023-07-28T07:40:19;3.78;;;2.00;;
73593;SDS011;64760;53.404;23.498;2023-07-28T07:45:12;2.78;;;1.73;;
73593;SDS011;64760;53.404;23.498;2023-07-28T07:47:41;3.00;;;1.67;;
73593;SDS011;64760;53.404;23.498;2023-07-28T07:50:08;2.95;;;1.52;;
73593;SDS011;64760;53.404;23.498;2023-07-28T07:52:37;2.60;;;1.70;;
73593;SDS011;64760;53.404;23.498;2023-07-28T07:55:04;3.55;;;1.80;;
73593;SDS011;64760;53.404;23.498;2023-07-28T07:57:31;2.92;;;1.70;;
73593;SDS011;64760;53.404;23.498;2023-07-28T07:59:57;3.00;;;1.80;;
73593;SDS011;64760;53.404;23.498;2023-07-28T08:02:23;4.00;;;2.13;;
73593;SDS011;64760;53.404;23.498;2023-07-28T08:04:51;3.08;;;1.88;;
73593;SDS011;64760;53.404;23.498;2023-07-28T08:07:17;2.95;;;1.60;;
73593;SDS011;64760;53.404;23.498;2023-07-28T08:09:43;3.28;;;1.83;;
73593;SDS011;64760;53.404;23.498;2023-07-28T08:12:09;2.80;;;1.90;;
73593;SDS011;64760;53.404;23.498;2023-07-28T08:14:35;4.38;;;2.33;;
73593;SDS011;64760;53.404;23.498;2023-07-28T08:17:02;2.95;;;1.98;;
73593;SDS011;64760;53.404;23.498;2023-07-28T08:19:28;4.13;;;2.08;;
73593;SDS011;64760;53.404;23.498;2023-07-28T08:21:54;2.58;;;1.50;;
73593;SDS011;64760;53.404;23.498;2023-07-28T08:24:21;3.38;;;1.90;;
73593;SDS011;64760;53.404;23.498;2023-07-28T08:26:47;3.80;;;1.95;;
73593;SDS011;64760;53.404;23.498;2023-07-28T08:29:13;3.22;;;1.95;;
73593;SDS011;64760;53.404;23.498;2023-07-28T08:31:39;5.25;;;2.30;;
73593;SDS011;64760;53.404;23.498;2023-07-28T08:34:07;5.95;;;2.10;;
73593;SDS011;64760;53.404;23.498;2023-07-28T08:36:33;3.28;;;2.00;;
73593;SDS011;64760;53.404;23.498;2023-07-28T08:39:00;6.30;;;1.90;;
73593;SDS011;64760;53.404;23.498;2023-07-28T08:41:26;3.40;;;2.22;;
73593;SDS011;64760;53.404;23.498;2023-07-28T08:43:52;3.47;;;1.85;;
73593;SDS011;64760;53.404;23.498;2023-07-28T08:46:19;4.72;;;2.60;;
73593;SDS011;64760;53.404;23.498;2023-07-28T08:48:45;4.32;;;2.20;;
73593;SDS011;64760;53.404;23.498;2023-07-28T08:51:12;3.30;;;1.88;;
73593;SDS011;64760;53.404;23.498;2023-07-28T08:56:05;3.95;;;2.15;;
73593;SDS011;64760;53.404;23.498;2023-07-28T08:58:31;6.85;;;2.53;;
73593;SDS011;64760;53.404;23.498;2023-07-28T09:00:57;2.60;;;1.60;;
73593;SDS011;64760;53.404;23.498;2023-07-28T09:03:27;4.18;;;1.88;;
73593;SDS011;64760;53.404;23.498;2023-07-28T09:05:58;4.60;;;2.22;;
73593;SDS011;64760;53.404;23.498;2023-07-28T09:08:25;6.28;;;2.40;;
73593;SDS011;64760;53.404;23.498;2023-07-28T09:10:51;4.68;;;2.38;;
73593;SDS011;64760;53.404;23.498;2023-07-28T09:13:18;5.90;;;2.83;;
73593;SDS011;64760;53.404;23.498;2023-07-28T09:15:44;3.50;;;1.88;;
73593;SDS011;64760;53.404;23.498;2023-07-28T09:20:38;5.60;;;2.20;;
73593;SDS011;64760;53.404;23.498;2023-07-28T09:23:05;4.05;;;2.72;;
73593;SDS011;64760;53.404;23.498;2023-07-28T09:25:33;3.63;;;2.20;;
73593;SDS011;64760;53.404;23.498;2023-07-28T09:28:00;4.45;;;2.33;;
73593;SDS011;64760;53.404;23.498;2023-07-28T09:30:26;3.17;;;2.00;;
73593;SDS011;64760;53.404;23.498;2023-07-28T09:32:53;3.88;;;2.20;;
73593;SDS011;64760;53.404;23.498;2023-07-28T09:35:20;3.70;;;2.55;;
73593;SDS011;64760;53.404;23.498;2023-07-28T09:37:48;3.10;;;2.10;;
73593;SDS011;64760;53.404;23.498;2023-07-28T09:42:41;3.58;;;2.20;;
73593;SDS011;64760;53.404;23.498;2023-07-28T09:45:08;3.60;;;2.40;;
73593;SDS011;64760;53.404;23.498;2023-07-28T09:47:35;3.65;;;2.35;;
73593;SDS011;64760;53.404;23.498;2023-07-28T09:50:02;3.63;;;2.03;;
73593;SDS011;64760;53.404;23.498;2023-07-28T09:52:31;2.90;;;2.05;;
73593;SDS011;64760;53.404;23.498;2023-07-28T09:54:58;2.80;;;1.90;;
73593;SDS011;64760;53.404;23.498;2023-07-28T09:57:26;5.47;;;2.50;;
73593;SDS011;64760;53.404;23.498;2023-07-28T09:59:54;4.03;;;2.67;;
73593;SDS011;64760;53.404;23.498;2023-07-28T10:02:20;4.00;;;2.20;;
73593;SDS011;64760;53.404;23.498;2023-07-28T10:04:47;3.80;;;2.65;;
73593;SDS011;64760;53.404;23.498;2023-07-28T10:07:13;2.50;;;1.60;;
73593;SDS011;64760;53.404;23.498;2023-07-28T10:09:40;3.83;;;2.65;;
73593;SDS011;64760;53.404;23.498;2023-07-28T10:12:06;3.50;;;2.40;;
73593;SDS011;64760;53.404;23.498;2023-07-28T10:14:43;4.25;;;2.80;;
73593;SDS011;64760;53.404;23.498;2023-07-28T10:17:14;4.78;;;2.67;;
73593;SDS011;64760;53.404;23.498;2023-07-28T10:19:40;4.53;;;2.33;;
73593;SDS011;64760;53.404;23.498;2023-07-28T10:22:08;3.78;;;2.45;;
73593;SDS011;64760;53.404;23.498;2023-07-28T10:29:58;3.15;;;2.30;;
73593;SDS011;64760;53.404;23.498;2023-07-28T10:35:41;3.45;;;2.00;;
73593;SDS011;64760;53.404;23.498;2023-07-28T10:37:48;3.15;;;1.80;;
73593;SDS011;64760;53.404;23.498;2023-07-28T10:40:29;4.43;;;1.95;;
73593;SDS011;64760;53.404;23.498;2023-07-28T10:43:02;3.78;;;2.17;;
73593;SDS011;64760;53.404;23.498;2023-07-28T10:45:34;4.90;;;2.40;;
73593;SDS011;64760;53.404;23.498;2023-07-28T10:48:06;4.57;;;2.47;;
73593;SDS011;64760;53.404;23.498;2023-07-28T10:50:36;5.07;;;2.53;;
73593;SDS011;64760;53.404;23.498;2023-07-28T10:53:07;4.90;;;3.50;;
73593;SDS011;64760;53.404;23.498;2023-07-28T10:55:36;4.22;;;2.45;;
73593;SDS011;64760;53.404;23.498;2023-07-28T10:58:03;5.28;;;2.53;;
73593;SDS011;64760;53.404;23.498;2023-07-28T11:00:31;5.05;;;2.50;;
73593;SDS011;64760;53.404;23.498;2023-07-28T11:03:01;5.13;;;2.60;;
73593;SDS011;64760;53.404;23.498;2023-07-28T11:05:30;5.13;;;2.38;;
73593;SDS011;64760;53.404;23.498;2023-07-28T11:07:57;3.78;;;2.20;;
73593;SDS011;64760;53.404;23.498;2023-07-28T11:10:29;4.07;;;2.60;;
73593;SDS011;64760;53.404;23.498;2023-07-28T11:13:02;3.80;;;2.70;;
73593;SDS011;64760;53.404;23.498;2023-07-28T11:15:31;4.15;;;2.58;;
73593;SDS011;64760;53.404;23.498;2023-07-28T11:18:03;3.60;;;2.50;;
73593;SDS011;64760;53.404;23.498;2023-07-28T11:20:33;5.78;;;3.20;;
73593;SDS011;64760;53.404;23.498;2023-07-28T11:23:06;4.90;;;2.70;;
73593;SDS011;64760;53.404;23.498;2023-07-28T11:25:39;4.50;;;2.40;;
73593;SDS011;64760;53.404;23.498;2023-07-28T11:28:12;4.38;;;2.88;;
73593;SDS011;64760;53.404;23.498;2023-07-28T11:30:43;3.58;;;2.28;;
73593;SDS011;64760;53.404;23.498;2023-07-28T11:33:15;4.63;;;2.85;;
73593;SDS011;64760;53.404;23.498;2023-07-28T11:35:46;3.72;;;2.70;;
73593;SDS011;64760;53.404;23.498;2023-07-28T11:38:16;3.42;;;2.40;;
73593;SDS011;64760;53.404;23.498;2023-07-28T11:40:46;5.57;;;2.92;;
73593;SDS011;64760;53.404;23.498;2023-07-28T11:43:16;6.55;;;3.65;;
73593;SDS011;64760;53.404;23.498;2023-07-28T11:45:46;4.65;;;2.63;;
73593;SDS011;64760;53.404;23.498;2023-07-28T11:48:12;4.32;;;2.83;;
73593;SDS011;64760;53.404;23.498;2023-07-28T11:50:40;4.20;;;2.47;;
73593;SDS011;64760;53.404;23.498;2023-07-28T11:53:07;4.50;;;3.13;;
73593;SDS011;64760;53.404;23.498;2023-07-28T11:55:38;5.85;;;3.22;;
73593;SDS011;64760;53.404;23.498;2023-07-28T11:58:05;5.05;;;3.10;;
73593;SDS011;64760;53.404;23.498;2023-07-28T12:00:31;5.55;;;3.30;;
73593;SDS011;64760;53.404;23.498;2023-07-28T12:03:04;4.38;;;3.03;;
73593;SDS011;64760;53.404;23.498;2023-07-28T12:05:31;5.22;;;2.90;;
73593;SDS011;64760;53.404;23.498;2023-07-28T12:07:57;4.97;;;3.17;;
73593;SDS011;64760;53.404;23.498;2023-07-28T12:10:23;6.13;;;3.10;;
73593;SDS011;64760;53.404;23.498;2023-07-28T12:12:50;5.05;;;3.42;;
73593;SDS011;64760;53.404;23.498;2023-07-28T12:15:23;5.40;;;3.50;;
73593;SDS011;64760;53.404;23.498;2023-07-28T12:20:38;4.80;;;3.42;;
73593;SDS011;64760;53.404;23.498;2023-07-28T12:23:05;6.15;;;3.70;;
73593;SDS011;64760;53.404;23.498;2023-07-28T12:25:31;6.35;;;3.70;;
73593;SDS011;64760;53.404;23.498;2023-07-28T12:27:57;5.80;;;4.07;;
73593;SDS011;64760;53.404;23.498;2023-07-28T12:30:23;5.20;;;3.80;;
73593;SDS011;64760;53.404;23.498;2023-07-28T12:32:50;7.15;;;4.20;;
73593;SDS011;64760;53.404;23.498;2023-07-28T12:35:15;7.18;;;4.00;;
73593;SDS011;64760;53.404;23.498;2023-07-28T12:37:42;5.80;;;4.20;;
73593;SDS011;64760;53.404;23.498;2023-07-28T12:40:08;5.65;;;4.55;;
73593;SDS011;64760;53.404;23.498;2023-07-28T12:42:34;8.48;;;4.55;;
73593;SDS011;64760;53.404;23.498;2023-07-28T12:45:00;10.05;;;4.68;;
73593;SDS011;64760;53.404;23.498;2023-07-28T12:47:26;10.05;;;4.85;;
73593;SDS011;64760;53.404;23.498;2023-07-28T12:49:52;6.57;;;4.70;;
73593;SDS011;64760;53.404;23.498;2023-07-28T12:52:19;6.30;;;4.40;;
73593;SDS011;64760;53.404;23.498;2023-07-28T12:54:45;6.53;;;4.05;;
73593;SDS011;64760;53.404;23.498;2023-07-28T12:57:13;6.90;;;4.63;;
73593;SDS011;64760;53.404;23.498;2023-07-28T12:59:39;6.80;;;5.25;;
73593;SDS011;64760;53.404;23.498;2023-07-28T13:02:05;7.82;;;4.78;;
73593;SDS011;64760;53.404;23.498;2023-07-28T13:04:31;8.35;;;5.82;;
73593;SDS011;64760;53.404;23.498;2023-07-28T13:06:58;6.53;;;4.95;;
73593;SDS011;64760;53.404;23.498;2023-07-28T13:09:24;7.53;;;5.40;;
73593;SDS011;64760;53.404;23.498;2023-07-28T13:11:50;8.20;;;4.65;;
73593;SDS011;64760;53.404;23.498;2023-07-28T13:14:16;6.88;;;4.15;;
73593;SDS011;64760;53.404;23.498;2023-07-28T13:16:42;12.35;;;7.40;;
73593;SDS011;64760;53.404;23.498;2023-07-28T13:19:10;7.93;;;5.72;;
73593;SDS011;64760;53.404;23.498;2023-07-28T13:21:36;13.05;;;6.65;;
73593;SDS011;64760;53.404;23.498;2023-07-28T13:24:02;7.13;;;5.25;;
73593;SDS011;64760;53.404;23.498;2023-07-28T13:26:29;6.88;;;4.57;;
73593;SDS011;64760;53.404;23.498;2023-07-28T13:31:24;9.45;;;4.20;;
73593;SDS011;64760;53.404;23.498;2023-07-28T13:33:50;6.50;;;4.15;;
73593;SDS011;64760;53.404;23.498;2023-07-28T13:36:16;6.68;;;4.25;;
73593;SDS011;64760;53.404;23.498;2023-07-28T13:38:42;8.25;;;3.72;;
73593;SDS011;64760;53.404;23.498;2023-07-28T13:41:09;6.85;;;4.03;;
73593;SDS011;64760;53.404;23.498;2023-07-28T13:43:35;5.47;;;3.60;;
73593;SDS011;64760;53.404;23.498;2023-07-28T13:46:04;4.85;;;3.20;;
73593;SDS011;64760;53.404;23.498;2023-07-28T13:48:32;7.32;;;3.78;;
73593;SDS011;64760;53.404;23.498;2023-07-28T13:50:59;5.70;;;3.72;;
73593;SDS011;64760;53.404;23.498;2023-07-28T13:53:25;4.88;;;3.22;;
73593;SDS011;64760;53.404;23.498;2023-07-28T13:55:51;5.50;;;3.60;;
73593;SDS011;64760;53.404;23.498;2023-07-28T13:58:17;8.63;;;4.90;;
73593;SDS011;64760;53.404;23.498;2023-07-28T14:00:43;6.07;;;3.85;;
73593;SDS011;64760;53.404;23.498;2023-07-28T14:03:10;6.20;;;3.47;;
73593;SDS011;64760;53.404;23.498;2023-07-28T14:05:37;5.97;;;3.85;;
73593;SDS011;64760;53.404;23.498;2023-07-28T14:08:03;6.10;;;4.00;;
73593;SDS011;64760;53.404;23.498;2023-07-28T14:10:29;6.40;;;4.85;;
73593;SDS011;64760;53.404;23.498;2023-07-28T14:12:58;5.93;;;4.13;;
73593;SDS011;64760;53.404;23.498;2023-07-28T14:15:25;6.57;;;3.67;;
73593;SDS011;64760;53.404;23.498;2023-07-28T14:17:51;5.63;;;3.33;;
73593;SDS011;64760;53.404;23.498;2023-07-28T14:20:17;7.22;;;4.03;;
73593;SDS011;64760;53.404;23.498;2023-07-28T14:22:43;7.25;;;3.88;;
73593;SDS011;64760;53.404;23.498;2023-07-28T14:27:36;6.30;;;3.97;;
73593;SDS011;64760;53.404;23.498;2023-07-28T14:30:03;5.07;;;4.20;;
73593;SDS011;64760;53.404;23.498;2023-07-28T14:32:29;6.05;;;4.47;;
73593;SDS011;64760;53.404;23.498;2023-07-28T14:34:55;6.55;;;4.32;;
73593;SDS011;64760;53.404;23.498;2023-07-28T14:37:21;6.60;;;4.85;;
73593;SDS011;64760;53.404;23.498;2023-07-28T14:39:48;6.28;;;4.30;;
73593;SDS011;64760;53.404;23.498;2023-07-28T14:42:14;5.88;;;4.60;;
73593;SDS011;64760;53.404;23.498;2023-07-28T14:44:40;6.15;;;4.57;;
73593;SDS011;64760;53.404;23.498;2023-07-28T14:47:06;6.35;;;4.20;;
73593;SDS011;64760;53.404;23.498;2023-07-28T14:49:32;7.28;;;4.55;;
73593;SDS011;64760;53.404;23.498;2023-07-28T14:51:58;6.28;;;4.40;;
73593;SDS011;64760;53.404;23.498;2023-07-28T14:54:25;6.13;;;4.15;;
73593;SDS011;64760;53.404;23.498;2023-07-28T14:56:51;5.35;;;3.95;;
73593;SDS011;64760;53.404;23.498;2023-07-28T14:59:17;5.60;;;3.75;;
73593;SDS011;64760;53.404;23.498;2023-07-28T15:01:43;5.22;;;4.05;;